Terminal Aerodrome Forecast
Issued by NWS

Home | Current Version | Previous Version | Text Only | Print | Product List | Glossary On
Versions: 1 2 3 4 5 6 7 8 9 10 11 12 13 14 15 16 17 18 19 20 21 22 23 24 25 26 27 28 29 30 31 32 33 34 35 36 37 38
641
FTAK31 PAFA 232036 AAB
TAFAQT
TAF AMD
PAQT 232036Z 2321/2418 18005KT 5SM BR SKC
      TEMPO 2321/2324 3/4SM BR
     FM240000 07008KT 3SM BR BKN100
     FM240600 06010KT 3SM BR SCT035 BKN100=

USA.gov is the U.S. government's official web portal to all federal, state and local government web resources and services.